Maria — SV7156 — position and weather

sailwx.info

Track history (hours):
 
Tides and Currents Weather Stations Pressure Air Temp Water Temp Dewpoint Dewpoint Depression Visibility Wind Speed Wind Dir Waves Ship Positions

Maria

Last reported at 2014-Sep-30 19:33 UTC. Time now 2014-Oct-02 02:38 UTC.
Position N 37°57' E 023°35'.

Length 74 m; draft 4.5 m.

Type: Ship. MMSI: 237493000.

Date/timePositionNaut miles runAvg speedWind from/ knotsBaromVisibWave heightAir tempDewpointWater temp
2014-Sep-30 19:33N 37°57' E 023°35'3 2.9
2014-Sep-30 18:33N 37°54' E 023°34'0 0.0
2014-Sep-30 17:33N 37°54' E 023°34'3 0.8
2014-Sep-30 13:19N 37°58' E 023°35'1 1.2
2014-Sep-30 12:33N 37°57' E 023°36'0 0.0
2014-Sep-30 11:33N 37°57' E 023°36'1 0.9
2014-Sep-30 10:33N 37°57' E 023°35'0 0.1
2014-Sep-30 09:33N 37°58' E 023°35'1 1.0
2014-Sep-30 08:33N 37°57' E 023°36'0 0.1
2014-Sep-30 07:33N 37°57' E 023°36'0 0.1
2014-Sep-30 06:33N 37°57' E 023°36'1 0.1
2014-Sep-29 10:33N 37°57' E 023°35'1 1.2
2014-Sep-29 09:33N 37°55' E 023°34'0 0.1
2014-Sep-29 08:33N 37°55' E 023°34'2 0.1
2014-Sep-27 17:22N 37°58' E 023°35'4 5.1
2014-Sep-27 16:33N 37°54' E 023°32'0 0.0
2014-Sep-27 15:33N 37°54' E 023°32'4 3.5
2014-Sep-27 14:33N 37°57' E 023°34'4 4.5
2014-Sep-27 13:33N 38°02' E 023°32'0 0.0
2014-Sep-27 12:33N 38°02' E 023°32'0 0.1
2014-Sep-27 11:33N 38°01' E 023°32'1 0.6
2014-Sep-27 10:18N 38°02' E 023°32'0 0.0
2014-Sep-27 09:33N 38°02' E 023°32'0 0.0
2014-Sep-27 08:33N 38°02' E 023°32'5 4.8
2014-Sep-27 07:33N 37°57' E 023°34'0 0.0
2014-Sep-26 20:16N 37°58' E 023°35'1 1.4
2014-Sep-26 19:34N 37°57' E 023°36'0 0.0
2014-Sep-26 18:34N 37°57' E 023°36'0 0.0
2014-Sep-26 17:33N 37°57' E 023°36'0 0.0
2014-Sep-26 16:34N 37°57' E 023°36'0 0.0
2014-Sep-26 15:33N 37°57' E 023°36'1 0.6
2014-Sep-26 14:33N 37°57' E 023°36'1 1.5
2014-Sep-26 13:33N 37°56' E 023°38'0 0.0
2014-Sep-26 12:33N 37°56' E 023°38'0 0.0
2014-Sep-26 11:33N 37°56' E 023°38'0 0.0
2014-Sep-26 10:34N 37°56' E 023°38'0 0.0
2014-Sep-26 09:34N 37°56' E 023°38'0 0.0
2014-Sep-26 08:33N 37°56' E 023°38'0 0.1
2014-Sep-26 07:33N 37°56' E 023°38'3 0.3
2014-Sep-25 21:33N 37°58' E 023°35'5 5.0
2014-Sep-25 20:29N 38°02' E 023°31'0 0.1
2014-Sep-25 19:08N 38°02' E 023°31'0 0.0
2014-Sep-25 18:33N 38°02' E 023°31'0 0.0
2014-Sep-25 17:33N 38°02' E 023°31'0 0.0
2014-Sep-25 16:31N 38°02' E 023°31'0 0.0
2014-Sep-25 15:32N 38°02' E 023°31'4 4.0
2014-Sep-25 14:33N 38°02' E 023°36'0 0.0
2014-Sep-25 13:33N 38°02' E 023°36'0 0.0
2014-Sep-25 12:33N 38°02' E 023°36'0 0.0
2014-Sep-25 11:33N 38°02' E 023°36'4 4.3
2014-Sep-25 10:33N 37°58' E 023°33'4 4.5
2014-Sep-25 09:33N 37°56' E 023°38'0 0.1
2014-Sep-25 08:33N 37°56' E 023°38'0 0.0
2014-Sep-25 07:33N 37°56' E 023°38'0 0.0
2014-Sep-25 06:33N 37°56' E 023°38'3 3.0
2014-Sep-25 05:33N 37°58' E 023°35'0 0.0
2014-Sep-24 19:33N 37°58' E 023°35'6 5.5
2014-Sep-24 18:33N 38°02' E 023°31'0 0.0
2014-Sep-24 17:29N 38°02' E 023°31'0 0.0
2014-Sep-24 16:31N 38°02' E 023°31'0 0.0
2014-Sep-24 15:34N 38°02' E 023°31'4 3.7
2014-Sep-24 14:33N 37°59' E 023°33'5 4.9
2014-Sep-24 13:33N 37°56' E 023°38'0 0.0
2014-Sep-24 12:33N 37°56' E 023°38'0 0.0
2014-Sep-24 11:34N 37°56' E 023°38'0 0.0
2014-Sep-24 10:34N 37°56' E 023°38'0 0.0
2014-Sep-24 09:33N 37°56' E 023°38'0 0.0
2014-Sep-24 08:34N 37°56' E 023°38'0 0.0
2014-Sep-24 07:34N 37°56' E 023°38'3 3.1
2014-Sep-24 06:34N 37°58' E 023°35'1 0.1
2014-Sep-23 18:33N 37°58' E 023°33'4 4.1
2014-Sep-23 17:29N 38°02' E 023°36'0 0.0
2014-Sep-23 15:24N 38°02' E 023°36'0 0.0
2014-Sep-23 14:30N 38°02' E 023°36'0 0.0
2014-Sep-23 13:28N 38°02' E 023°36'0 0.3
2014-Sep-23 12:33N 38°02' E 023°35'0 0.4
2014-Sep-23 11:33N 38°02' E 023°35'0 0.0
2014-Sep-23 10:33N 38°02' E 023°35'0 0.0
2014-Sep-23 09:33N 38°02' E 023°35'0 0.1
2014-Sep-23 08:33N 38°02' E 023°35'0 0.0
2014-Sep-23 07:33N 38°02' E 023°35'1 0.7
2014-Sep-23 06:33N 38°01' E 023°34'3 0.3
2014-Sep-22 18:33N 37°58' E 023°35'0 0.0
2014-Sep-22 17:33N 37°58' E 023°35'0 0.0
2014-Sep-22 16:33N 37°58' E 023°35'0 0.0
2014-Sep-22 15:33N 37°58' E 023°35'6 5.7
2014-Sep-22 14:33N 37°52' E 023°32'2 2.0
2014-Sep-22 13:33N 37°51' E 023°30'0 0.1
2014-Sep-22 12:33N 37°51' E 023°30'0 0.1
2014-Sep-22 11:33N 37°51' E 023°30'0 0.0
2014-Sep-22 10:33N 37°51' E 023°30'1 0.5
2014-Sep-22 09:33N 37°51' E 023°31'7 6.5
2014-Sep-22 08:33N 37°57' E 023°35'1 0.0
2014-Sep-21 12:07N 37°58' E 023°35'3 5.8
2014-Sep-21 11:34N 37°55' E 023°33'1 1.2
2014-Sep-21 10:34N 37°54' E 023°32'0 0.0
2014-Sep-21 09:33N 37°54' E 023°32'0 0.0
2014-Sep-21 08:34N 37°54' E 023°32'0 0.1
2014-Sep-21 07:34N 37°54' E 023°32'0 0.1
2014-Sep-21 06:34N 37°54' E 023°32'3 3.3
2014-Sep-21 05:34N 37°56' E 023°35'  
Track history (hours):
 
Tides and Currents Weather Stations Pressure Air Temp Water Temp Dewpoint Dewpoint Depression Visibility Wind Speed Wind Dir Waves Ship Positions

Maria

Last reported at 2014-Sep-30 19:33 UTC. Time now 2014-Oct-02 02:38 UTC.
Position N 37°57' E 023°35'.

Length 74 m; draft 4.5 m.

Type: Ship. MMSI: 237493000.

Date/timePositionNaut miles runAvg speedWind from/ knotsBaromVisibWave heightAir tempDewpointWater temp
2014-Sep-30 19:33N 37°57' E 023°35'3 2.9
2014-Sep-30 18:33N 37°54' E 023°34'0 0.0
2014-Sep-30 17:33N 37°54' E 023°34'3 0.8
2014-Sep-30 13:19N 37°58' E 023°35'1 1.2
2014-Sep-30 12:33N 37°57' E 023°36'0 0.0
2014-Sep-30 11:33N 37°57' E 023°36'1 0.9
2014-Sep-30 10:33N 37°57' E 023°35'0 0.1
2014-Sep-30 09:33N 37°58' E 023°35'1 1.0
2014-Sep-30 08:33N 37°57' E 023°36'0 0.1
2014-Sep-30 07:33N 37°57' E 023°36'0 0.1
2014-Sep-30 06:33N 37°57' E 023°36'1 0.1
2014-Sep-29 10:33N 37°57' E 023°35'1 1.2
2014-Sep-29 09:33N 37°55' E 023°34'0 0.1
2014-Sep-29 08:33N 37°55' E 023°34'2 0.1
2014-Sep-27 17:22N 37°58' E 023°35'4 5.1
2014-Sep-27 16:33N 37°54' E 023°32'0 0.0
2014-Sep-27 15:33N 37°54' E 023°32'4 3.5
2014-Sep-27 14:33N 37°57' E 023°34'4 4.5
2014-Sep-27 13:33N 38°02' E 023°32'0 0.0
2014-Sep-27 12:33N 38°02' E 023°32'0 0.1
2014-Sep-27 11:33N 38°01' E 023°32'1 0.6
2014-Sep-27 10:18N 38°02' E 023°32'0 0.0
2014-Sep-27 09:33N 38°02' E 023°32'0 0.0
2014-Sep-27 08:33N 38°02' E 023°32'5 4.8
2014-Sep-27 07:33N 37°57' E 023°34'0 0.0
2014-Sep-26 20:16N 37°58' E 023°35'1 1.4
2014-Sep-26 19:34N 37°57' E 023°36'0 0.0
2014-Sep-26 18:34N 37°57' E 023°36'0 0.0
2014-Sep-26 17:33N 37°57' E 023°36'0 0.0
2014-Sep-26 16:34N 37°57' E 023°36'0 0.0
2014-Sep-26 15:33N 37°57' E 023°36'1 0.6
2014-Sep-26 14:33N 37°57' E 023°36'1 1.5
2014-Sep-26 13:33N 37°56' E 023°38'0 0.0
2014-Sep-26 12:33N 37°56' E 023°38'0 0.0
2014-Sep-26 11:33N 37°56' E 023°38'0 0.0
2014-Sep-26 10:34N 37°56' E 023°38'0 0.0
2014-Sep-26 09:34N 37°56' E 023°38'0 0.0
2014-Sep-26 08:33N 37°56' E 023°38'0 0.1
2014-Sep-26 07:33N 37°56' E 023°38'3 0.3
2014-Sep-25 21:33N 37°58' E 023°35'5 5.0
2014-Sep-25 20:29N 38°02' E 023°31'0 0.1
2014-Sep-25 19:08N 38°02' E 023°31'0 0.0
2014-Sep-25 18:33N 38°02' E 023°31'0 0.0
2014-Sep-25 17:33N 38°02' E 023°31'0 0.0
2014-Sep-25 16:31N 38°02' E 023°31'0 0.0
2014-Sep-25 15:32N 38°02' E 023°31'4 4.0
2014-Sep-25 14:33N 38°02' E 023°36'0 0.0
2014-Sep-25 13:33N 38°02' E 023°36'0 0.0
2014-Sep-25 12:33N 38°02' E 023°36'0 0.0
2014-Sep-25 11:33N 38°02' E 023°36'4 4.3
2014-Sep-25 10:33N 37°58' E 023°33'4 4.5
2014-Sep-25 09:33N 37°56' E 023°38'0 0.1
2014-Sep-25 08:33N 37°56' E 023°38'0 0.0
2014-Sep-25 07:33N 37°56' E 023°38'0 0.0
2014-Sep-25 06:33N 37°56' E 023°38'3 3.0
2014-Sep-25 05:33N 37°58' E 023°35'0 0.0
2014-Sep-24 19:33N 37°58' E 023°35'6 5.5
2014-Sep-24 18:33N 38°02' E 023°31'0 0.0
2014-Sep-24 17:29N 38°02' E 023°31'0 0.0
2014-Sep-24 16:31N 38°02' E 023°31'0 0.0
2014-Sep-24 15:34N 38°02' E 023°31'4 3.7
2014-Sep-24 14:33N 37°59' E 023°33'5 4.9
2014-Sep-24 13:33N 37°56' E 023°38'0 0.0
2014-Sep-24 12:33N 37°56' E 023°38'0 0.0
2014-Sep-24 11:34N 37°56' E 023°38'0 0.0
2014-Sep-24 10:34N 37°56' E 023°38'0 0.0
2014-Sep-24 09:33N 37°56' E 023°38'0 0.0
2014-Sep-24 08:34N 37°56' E 023°38'0 0.0
2014-Sep-24 07:34N 37°56' E 023°38'3 3.1
2014-Sep-24 06:34N 37°58' E 023°35'1 0.1
2014-Sep-23 18:33N 37°58' E 023°33'4 4.1
2014-Sep-23 17:29N 38°02' E 023°36'0 0.0
2014-Sep-23 15:24N 38°02' E 023°36'0 0.0
2014-Sep-23 14:30N 38°02' E 023°36'0 0.0
2014-Sep-23 13:28N 38°02' E 023°36'0 0.3
2014-Sep-23 12:33N 38°02' E 023°35'0 0.4
2014-Sep-23 11:33N 38°02' E 023°35'0 0.0
2014-Sep-23 10:33N 38°02' E 023°35'0 0.0
2014-Sep-23 09:33N 38°02' E 023°35'0 0.1
2014-Sep-23 08:33N 38°02' E 023°35'0 0.0
2014-Sep-23 07:33N 38°02' E 023°35'1 0.7
2014-Sep-23 06:33N 38°01' E 023°34'3 0.3
2014-Sep-22 18:33N 37°58' E 023°35'0 0.0
2014-Sep-22 17:33N 37°58' E 023°35'0 0.0
2014-Sep-22 16:33N 37°58' E 023°35'0 0.0
2014-Sep-22 15:33N 37°58' E 023°35'6 5.7
2014-Sep-22 14:33N 37°52' E 023°32'2 2.0
2014-Sep-22 13:33N 37°51' E 023°30'0 0.1
2014-Sep-22 12:33N 37°51' E 023°30'0 0.1
2014-Sep-22 11:33N 37°51' E 023°30'0 0.0
2014-Sep-22 10:33N 37°51' E 023°30'1 0.5
2014-Sep-22 09:33N 37°51' E 023°31'7 6.5
2014-Sep-22 08:33N 37°57' E 023°35'1 0.0
2014-Sep-21 12:07N 37°58' E 023°35'3 5.8
2014-Sep-21 11:34N 37°55' E 023°33'1 1.2
2014-Sep-21 10:34N 37°54' E 023°32'0 0.0
2014-Sep-21 09:33N 37°54' E 023°32'0 0.0
2014-Sep-21 08:34N 37°54' E 023°32'0 0.1
2014-Sep-21 07:34N 37°54' E 023°32'0 0.1
2014-Sep-21 06:34N 37°54' E 023°32'3 3.3
2014-Sep-21 05:34N 37°56' E 023°35'  

Dump ship's entire track history